This is the latest recevied weather packets stored in our database for station/object K9MWD. If no packets are shown the sender has not sent any weather packets the latest 10 day(s).
| Time | Temp. | Humidity | Pressure | Rain* | Wind** | Luminosity | Snow |
|---|---|---|---|---|---|---|---|
| 1777762362 | 25° C | 33% | 1019.1 hPa | 0 mm | - | 282 W/m² | - |
| 1777762058 | 24.44° C | 32% | 1019.2 hPa | 0 mm | - | 300 W/m² | - |
| 1777761754 | 25° C | 31% | 1019.3 hPa | 0 mm | - | 319 W/m² | - |
| 1777761452 | 24.44° C | 31% | 1019.3 hPa | 0 mm | - | 332 W/m² | - |
| 1777761150 | 24.44° C | 33% | 1019.3 hPa | 0 mm | - | 179 W/m² | - |
| 1777760847 | 25° C | 30% | 1019.3 hPa | 0 mm | - | 363 W/m² | - |
| 1777760544 | 25° C | 32% | 1019.3 hPa | 0 mm | - | 388 W/m² | - |
| 1777760240 | 26.67° C | 30% | 1019.3 hPa | 0 mm | - | 409 W/m² | - |
| 1777759937 | 26.11° C | 29% | 1019.3 hPa | 0 mm | - | 425 W/m² | - |
| 1777759633 | 25° C | 30% | 1019.2 hPa | 0 mm | - | 442 W/m² | - |
| 1777759329 | 25° C | 30% | 1019.5 hPa | 0 mm | - | 463 W/m² | - |
| 1777759027 | 25° C | 31% | 1019.4 hPa | 0 mm | - | 483 W/m² | - |
| 1777758723 | 23.89° C | 31% | 1019.7 hPa | 0 mm | - | 500 W/m² | - |
| 1777758421 | 24.44° C | 31% | 1019.4 hPa | 0 mm | - | 519 W/m² | - |
| 1777758118 | 25° C | 30% | 1019.5 hPa | 0 mm | - | 534 W/m² | - |
| 1777757815 | 25° C | 31% | 1019.7 hPa | 0 mm | - | 553 W/m² | - |
| 1777757512 | 25.56° C | 30% | 1019.5 hPa | 0 mm | - | 575 W/m² | - |
| 1777757211 | 24.44° C | 34% | 1019.8 hPa | 0 mm | - | 593 W/m² | - |
| 1777756908 | 24.44° C | 32% | 1019.8 hPa | 0 mm | - | 612 W/m² | - |
| 1777756604 | 24.44° C | 33% | 1020 hPa | 0 mm | - | 628 W/m² | - |
| 1777756301 | 24.44° C | 32% | 1019.9 hPa | 0 mm | - | 641 W/m² | - |
| 1777755998 | 25° C | 32% | 1019.9 hPa | 0 mm | - | 649 W/m² | - |
| 1777755695 | 25.56° C | 32% | 1019.9 hPa | 0 mm | - | 665 W/m² | - |
| 1777755392 | 24.44° C | 33% | 1020.3 hPa | 0 mm | - | 688 W/m² | - |
| 1777755089 | 25° C | 32% | 1020.2 hPa | 0 mm | - | 707 W/m² | - |
* Rain latest hour (hover to see other rain measurements)
** Current wind speed in m/s (hover to see current wind gust speed)